createdAt,value
2023-02-11T00:01:01.898Z,89.43
2023-02-11T00:03:29.927Z,83.65
2023-02-11T00:05:59.063Z,83.15
2023-02-11T00:08:29.175Z,75.28
2023-02-11T00:10:58.871Z,79.30
2023-02-11T00:13:26.997Z,82.88
2023-02-11T00:15:55.016Z,85.55
2023-02-11T00:18:22.851Z,73.35
2023-02-11T00:20:50.904Z,78.38
2023-02-11T00:23:18.891Z,75.38
2023-02-11T00:25:48.279Z,74.10
2023-02-11T00:28:16.376Z,73.82
2023-02-11T00:30:44.548Z,71.78
2023-02-11T00:33:12.909Z,81.65
2023-02-11T00:35:41.360Z,75.05
2023-02-11T00:38:09.288Z,84.60
2023-02-11T00:40:38.789Z,78.32
2023-02-11T00:43:07.999Z,81.25
2023-02-11T00:45:35.921Z,83.03
2023-02-11T00:48:04.112Z,87.13
2023-02-11T00:50:31.990Z,79.63
2023-02-11T00:53:00.031Z,71.68
2023-02-11T00:55:27.920Z,73.25
2023-02-11T00:57:56.402Z,76.88
2023-02-11T01:00:25.954Z,78.35
2023-02-11T01:02:54.048Z,77.07
2023-02-11T01:05:23.214Z,77.32
2023-02-11T01:07:51.122Z,87.20
2023-02-11T01:10:19.201Z,75.88
2023-02-11T01:12:47.157Z,76.10
2023-02-11T01:15:15.889Z,77.07
2023-02-11T01:17:45.242Z,73.72
2023-02-11T01:20:15.237Z,67.95
2023-02-11T01:22:43.353Z,78.40
2023-02-11T01:25:11.566Z,72.05
2023-02-11T01:27:39.825Z,72.05
2023-02-11T01:30:09.057Z,75.32
2023-02-11T01:32:37.293Z,77.10
2023-02-11T01:35:07.040Z,78.57
2023-02-11T01:37:36.990Z,69.28
2023-02-11T01:40:05.485Z,74.68
2023-02-11T01:42:34.882Z,74.00
2023-02-11T01:45:03.158Z,75.95
2023-02-11T01:47:31.054Z,68.43
2023-02-11T01:50:00.409Z,66.68
2023-02-11T01:52:32.090Z,73.80
2023-02-11T01:55:19.600Z,81.35
2023-02-11T01:57:52.470Z,75.82
2023-02-11T02:00:22.765Z,78.30
2023-02-11T02:02:54.365Z,74.72
2023-02-11T02:05:29.207Z,69.60
2023-02-11T02:08:01.576Z,68.30
2023-02-11T02:10:30.126Z,68.82
2023-02-11T02:12:58.387Z,81.72
2023-02-11T02:15:27.949Z,77.32
2023-02-11T02:18:04.630Z,72.68
2023-02-11T02:20:38.810Z,78.60
2023-02-11T02:23:17.230Z,73.82
2023-02-11T02:26:03.845Z,91.97
2023-02-11T02:28:46.530Z,81.80
2023-02-11T02:31:22.566Z,82.20
2023-02-11T02:33:54.501Z,83.63
2023-02-11T02:36:24.605Z,89.65
2023-02-11T02:38:55.080Z,80.32
2023-02-11T02:41:24.859Z,100.55
2023-02-11T02:43:52.891Z,88.65
2023-02-11T02:46:22.022Z,97.00
2023-02-11T02:48:50.779Z,97.82
2023-02-11T02:51:31.171Z,110.20
2023-02-11T02:54:05.255Z,99.05
2023-02-11T02:56:37.640Z,94.07
2023-02-11T02:59:15.760Z,93.03
2023-02-11T03:01:48.969Z,105.00
2023-02-11T03:04:21.134Z,103.63
2023-02-11T03:06:54.411Z,90.88
2023-02-11T03:09:25.334Z,103.20
2023-02-11T03:11:53.400Z,109.53
2023-02-11T03:14:22.168Z,111.40
2023-02-11T03:16:50.596Z,114.20
2023-02-11T03:19:20.048Z,118.85
2023-02-11T03:21:48.682Z,121.57
2023-02-11T03:24:21.552Z,116.65
2023-02-11T03:26:51.063Z,109.05
2023-02-11T03:29:27.108Z,113.93
2023-02-11T03:32:00.729Z,114.25
2023-02-11T03:34:30.930Z,115.68
2023-02-11T03:37:01.774Z,92.68
2023-02-11T03:39:33.563Z,102.15
2023-02-11T03:42:02.464Z,102.18
2023-02-11T03:44:32.476Z,107.82
2023-02-11T03:47:00.897Z,103.18
2023-02-11T03:49:29.806Z,88.03
2023-02-11T03:51:58.128Z,88.43
2023-02-11T03:54:29.281Z,80.53
2023-02-11T03:57:00.509Z,86.28
2023-02-11T03:59:28.645Z,88.88
2023-02-11T04:01:56.740Z,85.70
2023-02-11T04:04:25.246Z,84.50
2023-02-11T04:06:53.172Z,87.25
2023-02-11T04:09:21.043Z,93.45
2023-02-11T04:11:48.903Z,87.00
2023-02-11T04:14:18.172Z,89.55
2023-02-11T04:16:46.125Z,92.72
2023-02-11T04:19:13.977Z,96.38
2023-02-11T04:21:44.201Z,91.38
2023-02-11T04:24:12.141Z,99.65
2023-02-11T04:26:40.004Z,99.20
2023-02-11T04:29:07.992Z,100.20
2023-02-11T04:31:37.331Z,98.85
2023-02-11T04:34:05.270Z,102.05
2023-02-11T04:36:33.151Z,99.20
2023-02-11T04:39:01.144Z,102.80
2023-02-11T04:41:29.126Z,105.15
2023-02-11T04:43:57.153Z,97.10
2023-02-11T04:46:25.093Z,95.38
2023-02-11T04:48:57.386Z,99.57
2023-02-11T04:51:25.818Z,103.00
2023-02-11T04:53:53.723Z,100.90
2023-02-11T04:56:21.807Z,102.43
2023-02-11T04:58:49.754Z,106.32
2023-02-11T05:01:17.996Z,107.15
2023-02-11T05:03:46.323Z,103.35
2023-02-11T05:06:15.708Z,101.63
2023-02-11T05:08:43.623Z,105.88
2023-02-11T05:11:15.550Z,102.68
2023-02-11T05:13:43.537Z,107.32
2023-02-11T05:16:11.903Z,108.13
2023-02-11T05:18:41.169Z,99.25
2023-02-11T05:21:09.509Z,107.93
2023-02-11T05:23:39.805Z,119.32
2023-02-11T05:26:08.074Z,100.13
2023-02-11T05:28:36.196Z,106.55
2023-02-11T05:31:04.370Z,112.95
2023-02-11T05:33:32.392Z,109.88
2023-02-11T05:36:01.031Z,126.20
2023-02-11T05:38:29.275Z,163.82
2023-02-11T05:40:58.561Z,233.25
2023-02-11T05:43:26.758Z,121.80
2023-02-11T05:45:54.940Z,122.70
2023-02-11T05:48:22.941Z,113.18
2023-02-11T05:50:50.849Z,118.38
2023-02-11T05:53:18.752Z,107.60
2023-02-11T05:55:47.046Z,97.13
2023-02-11T05:58:16.419Z,102.05
2023-02-11T06:00:44.351Z,103.28
2023-02-11T06:03:12.318Z,105.28
2023-02-11T06:05:40.883Z,110.30
2023-02-11T06:08:08.756Z,107.20
2023-02-11T06:10:36.979Z,104.85
2023-02-11T06:13:05.037Z,114.47
2023-02-11T06:15:34.458Z,105.55
2023-02-11T06:18:02.419Z,127.75
2023-02-11T06:20:30.581Z,113.75
2023-02-11T06:22:58.506Z,109.28
2023-02-11T06:25:26.577Z,113.38
2023-02-11T06:27:54.621Z,109.78
2023-02-11T06:30:22.879Z,108.13
2023-02-11T06:32:52.492Z,112.30
2023-02-11T06:35:20.687Z,113.18
2023-02-11T06:37:49.762Z,108.63
2023-02-11T06:40:17.785Z,124.20
2023-02-11T06:42:45.782Z,110.70
2023-02-11T06:45:14.175Z,115.85
2023-02-11T06:47:43.935Z,109.32
2023-02-11T06:50:15.175Z,112.00
2023-02-11T06:52:44.049Z,106.45
2023-02-11T06:55:12.007Z,107.78
2023-02-11T06:57:40.329Z,126.10
2023-02-11T07:00:09.306Z,124.10
2023-02-11T07:02:37.281Z,106.60
2023-02-11T07:05:06.777Z,106.80
2023-02-11T07:07:36.263Z,105.78
2023-02-11T07:10:05.919Z,113.03
2023-02-11T07:12:34.064Z,115.15
2023-02-11T07:15:02.038Z,110.47
2023-02-11T07:17:29.964Z,113.80
2023-02-11T07:19:57.883Z,119.40
2023-02-11T07:22:25.826Z,117.43
2023-02-11T07:24:55.266Z,117.55
2023-02-11T07:27:23.257Z,126.28
2023-02-11T07:29:51.092Z,120.30
2023-02-11T07:32:21.902Z,118.53
2023-02-11T07:34:49.973Z,107.63
2023-02-11T07:37:18.508Z,106.68
2023-02-11T07:39:46.450Z,104.20
2023-02-11T07:42:15.753Z,112.53
2023-02-11T07:44:44.421Z,106.95
2023-02-11T07:47:12.290Z,108.32
2023-02-11T07:49:40.256Z,111.50
2023-02-11T07:52:08.214Z,107.55
2023-02-11T07:54:36.177Z,102.82
2023-02-11T07:57:04.174Z,107.57
2023-02-11T07:59:33.893Z,106.40
2023-02-11T08:02:02.092Z,101.15
2023-02-11T08:04:30.062Z,94.43
2023-02-11T08:06:59.271Z,94.55
2023-02-11T08:09:27.376Z,90.97
2023-02-11T08:11:55.328Z,88.22
2023-02-11T08:14:25.330Z,90.57
2023-02-11T08:16:54.768Z,85.28
2023-02-11T08:19:22.681Z,83.47
2023-02-11T08:21:50.517Z,87.60
2023-02-11T08:24:18.410Z,81.97
2023-02-11T08:26:46.333Z,88.22
2023-02-11T08:29:15.233Z,85.85
2023-02-11T08:31:44.611Z,81.93
2023-02-11T08:34:14.593Z,76.05
2023-02-11T08:36:43.577Z,75.75
2023-02-11T08:39:19.564Z,79.82
2023-02-11T08:41:49.970Z,85.13
2023-02-11T08:44:18.086Z,78.47
2023-02-11T08:46:46.067Z,79.60
2023-02-11T08:49:15.632Z,76.78
2023-02-11T08:51:44.211Z,80.40
2023-02-11T08:54:12.437Z,68.47
2023-02-11T08:56:40.622Z,72.07
2023-02-11T08:59:10.333Z,67.38
2023-02-11T09:01:38.424Z,63.97
2023-02-11T09:04:06.485Z,74.20
2023-02-11T09:06:35.884Z,75.13
2023-02-11T09:09:03.939Z,64.03
2023-02-11T09:11:33.277Z,68.80
2023-02-11T09:14:01.624Z,78.55
2023-02-11T09:16:30.985Z,69.72
2023-02-11T09:18:59.383Z,69.95
2023-02-11T09:21:27.780Z,70.35
2023-02-11T09:23:57.472Z,92.82
2023-02-11T09:26:26.587Z,81.22
2023-02-11T09:28:54.700Z,74.50
2023-02-11T09:31:24.331Z,79.20
2023-02-11T09:33:53.729Z,66.32
2023-02-11T09:36:22.188Z,74.47
2023-02-11T09:38:50.439Z,73.72
2023-02-11T09:41:36.154Z,77.40
2023-02-11T09:44:07.340Z,68.47
2023-02-11T09:46:37.621Z,74.18
2023-02-11T09:49:05.935Z,68.50
2023-02-11T09:51:36.598Z,68.05
2023-02-11T09:54:06.906Z,71.32
2023-02-11T09:56:34.823Z,69.25
2023-02-11T09:59:02.797Z,76.90
2023-02-11T10:01:37.074Z,70.25
2023-02-11T10:04:06.711Z,67.75
2023-02-11T10:06:39.463Z,68.22
2023-02-11T10:09:11.987Z,73.90
2023-02-11T10:11:43.476Z,77.10
2023-02-11T10:14:19.140Z,72.32
2023-02-11T10:16:53.416Z,66.70
2023-02-11T10:19:29.222Z,70.82
2023-02-11T10:22:01.048Z,80.65
2023-02-11T10:24:29.507Z,81.57
2023-02-11T10:26:57.352Z,73.68
2023-02-11T10:29:33.796Z,77.07
2023-02-11T10:32:05.829Z,72.45
2023-02-11T10:34:33.833Z,77.50
2023-02-11T10:37:01.721Z,72.13
2023-02-11T10:39:29.768Z,67.43
2023-02-11T10:42:00.641Z,64.00
2023-02-11T10:44:31.557Z,67.13
2023-02-11T10:47:01.566Z,65.03
2023-02-11T10:49:38.753Z,67.63
2023-02-11T10:52:14.029Z,61.90
2023-02-11T10:54:42.540Z,71.53
2023-02-11T10:57:17.973Z,63.65
2023-02-11T10:59:46.241Z,73.10
2023-02-11T11:02:22.529Z,71.30
2023-02-11T11:04:57.129Z,67.15
2023-02-11T11:07:27.265Z,67.80
2023-02-11T11:09:56.749Z,64.72
2023-02-11T11:12:32.478Z,67.32
2023-02-11T11:15:01.255Z,69.10
2023-02-11T11:17:29.757Z,76.68
2023-02-11T11:20:13.120Z,62.47
2023-02-11T11:22:42.919Z,67.35
2023-02-11T11:25:24.509Z,62.08
2023-02-11T11:27:53.734Z,69.82
2023-02-11T11:30:22.154Z,65.43
2023-02-11T11:32:50.205Z,75.85
2023-02-11T11:35:26.097Z,69.80
2023-02-11T11:37:56.747Z,62.67
2023-02-11T11:40:25.966Z,64.15
2023-02-11T11:43:05.029Z,60.88
2023-02-11T11:45:32.989Z,63.05
2023-02-11T11:48:01.799Z,68.72
2023-02-11T11:50:35.875Z,60.58
2023-02-11T11:53:08.787Z,58.35
2023-02-11T11:55:39.809Z,61.63
2023-02-11T11:58:11.951Z,56.88
2023-02-11T12:00:45.747Z,55.75
2023-02-11T12:03:28.504Z,52.75
2023-02-11T12:06:04.273Z,53.38
2023-02-11T12:08:39.224Z,58.30
2023-02-11T12:11:14.417Z,54.00
2023-02-11T12:13:47.838Z,47.88
2023-02-11T12:16:21.787Z,52.17
2023-02-11T12:18:56.864Z,53.80
2023-02-11T12:21:31.887Z,46.05
2023-02-11T12:24:07.737Z,51.65
2023-02-11T12:26:40.632Z,45.63
2023-02-11T12:29:12.710Z,49.47
2023-02-11T12:31:54.652Z,53.65
2023-02-11T12:34:40.381Z,48.22
2023-02-11T12:37:15.524Z,49.63
2023-02-11T12:39:48.595Z,44.92
2023-02-11T12:42:39.659Z,46.40
2023-02-11T12:45:15.172Z,50.70
2023-02-11T12:47:48.642Z,46.72
2023-02-11T12:50:21.208Z,47.40
2023-02-11T12:52:56.352Z,44.85
2023-02-11T12:55:26.893Z,44.20
2023-02-11T12:57:55.535Z,38.55
2023-02-11T13:00:24.907Z,41.85
2023-02-11T13:02:56.946Z,41.47
2023-02-11T13:05:27.428Z,42.30
2023-02-11T13:07:59.504Z,40.60
2023-02-11T13:10:30.542Z,38.90
2023-02-11T13:13:17.921Z,38.42
2023-02-11T13:15:46.994Z,35.58
2023-02-11T13:18:19.249Z,42.03
2023-02-11T13:20:51.104Z,30.70
2023-02-11T13:23:22.718Z,37.80
2023-02-11T13:25:55.908Z,33.83
2023-02-11T13:28:27.091Z,36.97
2023-02-11T13:31:03.057Z,36.42
2023-02-11T13:33:36.309Z,34.00
2023-02-11T13:36:15.594Z,36.47
2023-02-11T13:38:52.149Z,40.00
2023-02-11T13:41:24.822Z,38.05
2023-02-11T13:43:59.990Z,40.28
2023-02-11T13:46:29.986Z,34.65
2023-02-11T13:48:58.351Z,31.85
2023-02-11T13:51:37.204Z,37.67
2023-02-11T13:54:06.044Z,39.42
2023-02-11T13:56:36.480Z,36.92
2023-02-11T13:59:05.626Z,35.10
2023-02-11T14:02:06.122Z,34.95
2023-02-11T14:04:51.949Z,37.03
2023-02-11T14:07:45.863Z,39.88
2023-02-11T14:10:32.607Z,36.08
2023-02-11T14:13:19.049Z,37.33
2023-02-11T14:15:47.420Z,41.53
2023-02-11T14:18:39.093Z,37.60
2023-02-11T14:21:13.303Z,38.92
2023-02-11T14:23:42.108Z,37.97
2023-02-11T14:26:24.130Z,38.03
2023-02-11T14:28:55.838Z,41.13
2023-02-11T14:31:26.414Z,47.00
2023-02-11T14:34:06.984Z,50.75
2023-02-11T14:36:46.519Z,45.15
2023-02-11T14:39:21.362Z,37.45
2023-02-11T14:41:51.098Z,38.80
2023-02-11T14:44:22.279Z,43.22
2023-02-11T14:46:52.658Z,39.72
2023-02-11T14:49:25.160Z,41.90
2023-02-11T14:51:55.583Z,37.20
2023-02-11T14:54:25.394Z,41.67
2023-02-11T14:57:09.851Z,43.00
2023-02-11T14:59:39.259Z,42.75
2023-02-11T15:02:21.027Z,45.70
2023-02-11T15:04:49.076Z,39.67
2023-02-11T15:07:17.417Z,42.70
2023-02-11T15:09:47.174Z,37.90
2023-02-11T15:12:17.945Z,38.85
2023-02-11T15:14:49.550Z,44.53
2023-02-11T15:17:20.282Z,42.58
2023-02-11T15:19:49.916Z,46.10
2023-02-11T15:22:21.432Z,49.45
2023-02-11T15:24:59.375Z,44.22
2023-02-11T15:27:27.419Z,43.70
2023-02-11T15:29:56.617Z,43.90
2023-02-11T15:32:25.492Z,44.63
2023-02-11T15:34:56.833Z,44.10
2023-02-11T15:37:25.438Z,42.90
2023-02-11T15:39:53.853Z,46.70
2023-02-11T15:42:23.202Z,44.47
2023-02-11T15:44:56.568Z,38.45
2023-02-11T15:47:26.270Z,41.97
2023-02-11T15:49:54.285Z,44.17
2023-02-11T15:52:25.096Z,43.35
2023-02-11T15:54:53.901Z,41.03
2023-02-11T15:57:22.708Z,40.38
2023-02-11T15:59:52.022Z,43.28
2023-02-11T16:02:21.988Z,45.72
2023-02-11T16:04:55.547Z,44.30
2023-02-11T16:07:39.676Z,46.03
2023-02-11T16:10:17.344Z,41.70
2023-02-11T16:12:51.764Z,47.08
2023-02-11T16:15:46.872Z,39.13
2023-02-11T16:18:21.951Z,43.35
2023-02-11T16:20:54.280Z,45.30
2023-02-11T16:23:24.444Z,43.20
2023-02-11T16:25:56.661Z,47.58
2023-02-11T16:28:25.029Z,46.42
2023-02-11T16:30:54.693Z,41.63
2023-02-11T16:33:23.887Z,44.28
2023-02-11T16:35:53.243Z,42.75
2023-02-11T16:38:21.139Z,43.88
2023-02-11T16:40:50.766Z,49.03
2023-02-11T16:43:19.764Z,53.05
2023-02-11T16:45:47.740Z,46.67
2023-02-11T16:48:18.265Z,47.65
2023-02-11T16:50:48.603Z,45.80
2023-02-11T16:53:20.582Z,46.28
2023-02-11T16:55:48.766Z,55.60
2023-02-11T16:58:16.641Z,53.40
2023-02-11T17:00:46.114Z,49.70
2023-02-11T17:03:17.537Z,49.72
2023-02-11T17:05:55.401Z,43.60
2023-02-11T17:08:25.048Z,44.25
2023-02-11T17:10:53.576Z,43.70
2023-02-11T17:13:21.913Z,46.28
2023-02-11T17:15:51.251Z,48.45
2023-02-11T17:18:19.504Z,43.33
2023-02-11T17:20:47.809Z,45.50
2023-02-11T17:23:15.855Z,42.50
2023-02-11T17:25:47.085Z,47.28
2023-02-11T17:28:14.988Z,49.17
2023-02-11T17:30:44.535Z,51.42
2023-02-11T17:33:13.075Z,45.38
2023-02-11T17:35:41.805Z,51.90
2023-02-11T17:38:09.701Z,47.42
2023-02-11T17:40:37.824Z,48.85
2023-02-11T17:43:07.156Z,48.47
2023-02-11T17:45:36.179Z,49.10
2023-02-11T17:48:04.135Z,45.38
2023-02-11T17:50:32.109Z,43.65
2023-02-11T17:53:00.892Z,44.83
2023-02-11T17:55:28.967Z,50.47
2023-02-11T17:58:00.195Z,39.38
2023-02-11T18:00:37.180Z,46.28
2023-02-11T18:03:05.552Z,41.78
2023-02-11T18:05:36.949Z,43.67
2023-02-11T18:08:05.257Z,45.38
2023-02-11T18:10:34.165Z,42.83
2023-02-11T18:13:02.164Z,42.95
2023-02-11T18:15:31.595Z,45.53
2023-02-11T18:17:59.580Z,46.50
2023-02-11T18:20:27.453Z,45.13
2023-02-11T18:22:55.361Z,42.90
2023-02-11T18:25:23.557Z,42.30
2023-02-11T18:27:51.700Z,47.45
2023-02-11T18:30:20.359Z,44.72
2023-02-11T18:32:54.152Z,42.20
2023-02-11T18:35:22.491Z,48.10
2023-02-11T18:37:50.519Z,41.25
2023-02-11T18:40:18.579Z,44.70
2023-02-11T18:42:47.539Z,45.28
2023-02-11T18:45:16.148Z,45.47
2023-02-11T18:47:44.208Z,48.90
2023-02-11T18:50:16.475Z,45.47
2023-02-11T18:52:45.007Z,48.45
2023-02-11T18:55:13.260Z,42.55
2023-02-11T18:57:41.333Z,49.75
2023-02-11T19:00:10.446Z,49.35
2023-02-11T19:02:38.415Z,47.10
2023-02-11T19:05:07.197Z,46.05
2023-02-11T19:07:36.580Z,44.25
2023-02-11T19:10:04.829Z,46.15
2023-02-11T19:12:33.374Z,44.75
2023-02-11T19:15:01.678Z,44.00
2023-02-11T19:17:29.681Z,38.50
2023-02-11T19:19:57.787Z,44.28
2023-02-11T19:22:25.792Z,44.25
2023-02-11T19:24:55.183Z,45.55
2023-02-11T19:27:23.103Z,42.22
2023-02-11T19:29:51.067Z,45.13
2023-02-11T19:32:19.262Z,42.42
2023-02-11T19:34:47.339Z,45.38
2023-02-11T19:37:15.471Z,47.53
2023-02-11T19:39:44.080Z,42.67
2023-02-11T19:42:13.781Z,46.92
2023-02-11T19:44:42.362Z,46.80
2023-02-11T19:47:10.851Z,48.38
2023-02-11T19:49:38.906Z,40.85
2023-02-11T19:52:06.933Z,43.45
2023-02-11T19:54:35.034Z,45.97
2023-02-11T19:57:03.073Z,40.45
2023-02-11T19:59:32.393Z,41.70
2023-02-11T20:02:01.613Z,47.17
2023-02-11T20:04:32.223Z,56.83
2023-02-11T20:07:00.408Z,47.83
2023-02-11T20:09:29.119Z,45.65
2023-02-11T20:11:57.026Z,42.72
2023-02-11T20:14:27.564Z,39.03
2023-02-11T20:16:57.423Z,40.90
2023-02-11T20:19:25.524Z,41.20
2023-02-11T20:21:55.857Z,40.83
2023-02-11T20:24:24.912Z,37.08
2023-02-11T20:26:55.755Z,45.42
2023-02-11T20:29:25.189Z,38.53
2023-02-11T20:31:53.154Z,45.40
2023-02-11T20:34:22.818Z,42.42
2023-02-11T20:36:52.888Z,35.03
2023-02-11T20:39:22.463Z,37.42
2023-02-11T20:41:50.909Z,38.08
2023-02-11T20:44:19.370Z,37.28
2023-02-11T20:46:47.553Z,37.35
2023-02-11T20:49:16.324Z,38.97
2023-02-11T20:51:45.739Z,38.30
2023-02-11T20:54:14.928Z,36.08
2023-02-11T20:56:44.482Z,36.33
2023-02-11T20:59:14.239Z,37.35
2023-02-11T21:01:43.857Z,38.35
2023-02-11T21:04:12.918Z,36.70
2023-02-11T21:06:42.952Z,32.28
2023-02-11T21:09:14.216Z,34.00
2023-02-11T21:11:42.859Z,36.65
2023-02-11T21:14:11.173Z,41.30
2023-02-11T21:16:39.087Z,36.13
2023-02-11T21:19:07.175Z,39.17
2023-02-11T21:21:36.037Z,39.97
2023-02-11T21:24:03.993Z,37.80
2023-02-11T21:26:33.886Z,37.42
2023-02-11T21:29:01.749Z,38.30
2023-02-11T21:31:31.083Z,35.88
2023-02-11T21:33:59.693Z,36.92
2023-02-11T21:36:28.142Z,41.55
2023-02-11T21:38:56.096Z,43.92
2023-02-11T21:41:24.910Z,40.30
2023-02-11T21:43:54.532Z,31.95
2023-02-11T21:46:23.008Z,34.95
2023-02-11T21:48:51.338Z,34.25
2023-02-11T21:51:20.038Z,35.13
2023-02-11T21:53:48.324Z,35.30
2023-02-11T21:56:17.720Z,39.95
2023-02-11T21:58:46.510Z,35.10
2023-02-11T22:01:17.475Z,31.75
2023-02-11T22:03:46.076Z,36.25
2023-02-11T22:06:14.977Z,32.75
2023-02-11T22:08:43.313Z,41.05
2023-02-11T22:11:12.226Z,36.13
2023-02-11T22:13:41.722Z,34.22
2023-02-11T22:16:10.734Z,32.58
2023-02-11T22:18:40.949Z,34.33
2023-02-11T22:21:09.463Z,35.30
2023-02-11T22:23:38.286Z,33.97
2023-02-11T22:26:07.582Z,34.65
2023-02-11T22:28:37.160Z,37.42
2023-02-11T22:31:05.376Z,42.38
2023-02-11T22:33:33.274Z,35.58
2023-02-11T22:36:03.522Z,32.45
2023-02-11T22:38:32.499Z,36.92
2023-02-11T22:41:00.751Z,36.97
2023-02-11T22:43:29.067Z,30.40
2023-02-11T22:46:00.683Z,32.92
2023-02-11T22:48:30.891Z,38.50
2023-02-11T22:51:04.387Z,36.50
2023-02-11T22:53:33.903Z,38.03
2023-02-11T22:56:05.410Z,39.28
2023-02-11T22:58:33.401Z,38.22
2023-02-11T23:01:01.607Z,31.42
2023-02-11T23:03:29.726Z,33.78
2023-02-11T23:05:59.400Z,32.90
2023-02-11T23:08:27.905Z,38.47
2023-02-11T23:10:57.277Z,38.60
2023-02-11T23:13:25.222Z,33.97
2023-02-11T23:15:53.379Z,31.50
2023-02-11T23:18:21.542Z,34.45
2023-02-11T23:20:49.498Z,37.72
2023-02-11T23:23:17.377Z,34.10
2023-02-11T23:25:45.696Z,34.33
2023-02-11T23:28:15.492Z,31.10
2023-02-11T23:30:44.342Z,36.75
2023-02-11T23:33:13.686Z,37.30
2023-02-11T23:35:41.598Z,34.00
2023-02-11T23:38:09.588Z,32.25
2023-02-11T23:40:37.469Z,37.50
2023-02-11T23:43:05.455Z,32.30
2023-02-11T23:45:34.805Z,34.13
2023-02-11T23:48:02.734Z,31.70
2023-02-11T23:50:32.734Z,32.00
2023-02-11T23:53:00.614Z,32.00
2023-02-11T23:55:28.591Z,36.97
2023-02-11T23:57:56.664Z,32.35
